sensor_id;sensor_type;location;lat;lon;timestamp;pressure;altitude;pressure_sealevel;temperature;humidity
54850;BME280;47660;51.334;12.396;2023-05-23T00:00:56;99758.94;;;27.00;49.08
54850;BME280;47660;51.334;12.396;2023-05-23T00:03:23;99759.75;;;26.23;51.53
54850;BME280;47660;51.334;12.396;2023-05-23T00:05:49;99746.56;;;26.20;52.00
54850;BME280;47660;51.334;12.396;2023-05-23T00:08:15;99742.81;;;26.14;52.37
54850;BME280;47660;51.334;12.396;2023-05-23T00:10:41;99751.56;;;26.68;51.35
54850;BME280;47660;51.334;12.396;2023-05-23T00:13:07;99740.28;;;26.19;53.36
54850;BME280;47660;51.334;12.396;2023-05-23T00:15:43;99743.84;;;26.06;55.06
54850;BME280;47660;51.334;12.396;2023-05-23T00:18:09;99741.38;;;26.89;53.61
54850;BME280;47660;51.334;12.396;2023-05-23T00:20:40;99730.25;;;27.48;52.49
54850;BME280;47660;51.334;12.396;2023-05-23T00:23:07;99734.91;;;27.41;52.03
54850;BME280;47660;51.334;12.396;2023-05-23T00:25:35;99743.50;;;27.19;53.23
54850;BME280;47660;51.334;12.396;2023-05-23T00:28:02;99737.25;;;27.63;52.47
54850;BME280;47660;51.334;12.396;2023-05-23T00:30:30;99738.06;;;27.38;52.56
54850;BME280;47660;51.334;12.396;2023-05-23T00:32:56;99739.38;;;27.61;50.95
54850;BME280;47660;51.334;12.396;2023-05-23T00:35:23;99735.69;;;27.23;51.68
54850;BME280;47660;51.334;12.396;2023-05-23T00:37:49;99738.78;;;27.96;50.16
54850;BME280;47660;51.334;12.396;2023-05-23T00:40:16;99741.59;;;28.26;49.59
54850;BME280;47660;51.334;12.396;2023-05-23T00:42:42;99746.22;;;27.19;50.57
54850;BME280;47660;51.334;12.396;2023-05-23T00:45:08;99747.47;;;26.91;51.63
54850;BME280;47660;51.334;12.396;2023-05-23T00:47:33;99744.25;;;27.52;49.63
54850;BME280;47660;51.334;12.396;2023-05-23T00:49:59;99735.78;;;27.35;50.36
54850;BME280;47660;51.334;12.396;2023-05-23T00:52:24;99743.72;;;26.86;52.09
54850;BME280;47660;51.334;12.396;2023-05-23T00:54:50;99740.00;;;27.31;52.39
54850;BME280;47660;51.334;12.396;2023-05-23T00:57:16;99748.38;;;27.36;51.60
54850;BME280;47660;51.334;12.396;2023-05-23T00:59:42;99748.78;;;27.14;53.65
54850;BME280;47660;51.334;12.396;2023-05-23T01:02:09;99754.41;;;27.19;53.20
54850;BME280;47660;51.334;12.396;2023-05-23T01:04:38;99736.38;;;27.18;53.93
54850;BME280;47660;51.334;12.396;2023-05-23T01:07:04;99735.41;;;27.31;52.05
54850;BME280;47660;51.334;12.396;2023-05-23T01:09:30;99728.19;;;26.86;52.32
54850;BME280;47660;51.334;12.396;2023-05-23T01:14:34;99731.13;;;26.46;55.53
54850;BME280;47660;51.334;12.396;2023-05-23T01:17:10;99724.75;;;26.97;53.15
54850;BME280;47660;51.334;12.396;2023-05-23T01:28:02;99721.47;;;26.89;54.84
54850;BME280;47660;51.334;12.396;2023-05-23T01:30:36;99732.38;;;26.50;56.41
54850;BME280;47660;51.334;12.396;2023-05-23T01:33:03;99725.66;;;26.00;58.12
54850;BME280;47660;51.334;12.396;2023-05-23T01:35:30;99722.59;;;27.57;54.30
54850;BME280;47660;51.334;12.396;2023-05-23T01:37:56;99733.84;;;27.67;54.57
54850;BME280;47660;51.334;12.396;2023-05-23T01:40:25;99744.53;;;27.87;54.46
54850;BME280;47660;51.334;12.396;2023-05-23T01:42:54;99741.03;;;27.36;54.84
54850;BME280;47660;51.334;12.396;2023-05-23T01:45:24;99732.84;;;27.80;54.09
54850;BME280;47660;51.334;12.396;2023-05-23T01:47:53;99733.16;;;27.91;54.13
54850;BME280;47660;51.334;12.396;2023-05-23T01:50:21;99741.66;;;27.82;53.57
54850;BME280;47660;51.334;12.396;2023-05-23T01:52:47;99741.47;;;27.08;54.60
54850;BME280;47660;51.334;12.396;2023-05-23T01:55:18;99745.25;;;27.07;55.86
54850;BME280;47660;51.334;12.396;2023-05-23T01:57:49;99749.66;;;27.08;55.94
54850;BME280;47660;51.334;12.396;2023-05-23T02:00:15;99751.97;;;27.04;55.42
54850;BME280;47660;51.334;12.396;2023-05-23T02:02:41;99746.78;;;27.72;53.38
54850;BME280;47660;51.334;12.396;2023-05-23T02:05:10;99743.44;;;27.51;55.76
54850;BME280;47660;51.334;12.396;2023-05-23T02:07:38;99743.84;;;26.06;60.99
54850;BME280;47660;51.334;12.396;2023-05-23T02:10:06;99739.53;;;26.83;58.96
54850;BME280;47660;51.334;12.396;2023-05-23T02:12:34;99743.16;;;27.34;58.84
54850;BME280;47660;51.334;12.396;2023-05-23T02:15:00;99750.41;;;26.51;61.32
54850;BME280;47660;51.334;12.396;2023-05-23T02:17:26;99748.28;;;26.53;61.83
54850;BME280;47660;51.334;12.396;2023-05-23T02:19:51;99741.91;;;27.05;60.10
54850;BME280;47660;51.334;12.396;2023-05-23T02:22:17;99747.00;;;26.62;62.75
54850;BME280;47660;51.334;12.396;2023-05-23T02:24:42;99742.09;;;26.39;65.50
54850;BME280;47660;51.334;12.396;2023-05-23T02:27:08;99745.59;;;25.87;67.88
54850;BME280;47660;51.334;12.396;2023-05-23T02:29:33;99731.56;;;26.43;66.29
54850;BME280;47660;51.334;12.396;2023-05-23T02:31:59;99741.38;;;25.91;69.22
54850;BME280;47660;51.334;12.396;2023-05-23T02:34:24;99745.09;;;26.04;69.74
54850;BME280;47660;51.334;12.396;2023-05-23T02:36:50;99743.97;;;25.66;72.58
54850;BME280;47660;51.334;12.396;2023-05-23T02:39:16;99749.72;;;26.62;67.44
54850;BME280;47660;51.334;12.396;2023-05-23T02:41:42;99757.88;;;26.10;71.01
54850;BME280;47660;51.334;12.396;2023-05-23T02:44:07;99756.03;;;25.97;71.90
54850;BME280;47660;51.334;12.396;2023-05-23T02:46:33;99765.22;;;26.16;72.94
54850;BME280;47660;51.334;12.396;2023-05-23T02:48:58;99755.84;;;25.85;76.03
54850;BME280;47660;51.334;12.396;2023-05-23T02:51:24;99747.53;;;26.39;73.32
54850;BME280;47660;51.334;12.396;2023-05-23T02:53:49;99757.97;;;25.56;78.66
54850;BME280;47660;51.334;12.396;2023-05-23T02:56:15;99759.19;;;25.94;76.41
54850;BME280;47660;51.334;12.396;2023-05-23T02:58:40;99769.06;;;25.41;80.02
54850;BME280;47660;51.334;12.396;2023-05-23T03:01:06;99763.81;;;25.06;82.70
54850;BME280;47660;51.334;12.396;2023-05-23T03:03:32;99766.78;;;25.51;81.53
54850;BME280;47660;51.334;12.396;2023-05-23T03:05:58;99760.78;;;26.29;76.24
54850;BME280;47660;51.334;12.396;2023-05-23T03:08:26;99757.75;;;25.24;80.80
54850;BME280;47660;51.334;12.396;2023-05-23T03:10:51;99759.25;;;25.54;79.42
54850;BME280;47660;51.334;12.396;2023-05-23T03:13:17;99758.44;;;26.32;75.88
54850;BME280;47660;51.334;12.396;2023-05-23T03:15:45;99765.22;;;26.09;75.68
54850;BME280;47660;51.334;12.396;2023-05-23T03:18:11;99768.47;;;25.66;77.82
54850;BME280;47660;51.334;12.396;2023-05-23T03:20:39;99750.47;;;26.37;75.69
54850;BME280;47660;51.334;12.396;2023-05-23T03:23:04;99767.81;;;25.10;82.64
54850;BME280;47660;51.334;12.396;2023-05-23T03:25:30;99773.50;;;24.53;88.30
54850;BME280;47660;51.334;12.396;2023-05-23T03:27:55;99770.53;;;24.41;89.99
54850;BME280;47660;51.334;12.396;2023-05-23T03:30:21;99764.66;;;25.13;85.33
54850;BME280;47660;51.334;12.396;2023-05-23T03:32:46;99775.06;;;24.76;88.21
54850;BME280;47660;51.334;12.396;2023-05-23T03:35:12;99767.13;;;24.95;87.47
54850;BME280;47660;51.334;12.396;2023-05-23T03:37:37;99761.25;;;24.84;88.83
54850;BME280;47660;51.334;12.396;2023-05-23T03:40:03;99777.84;;;25.30;87.80
54850;BME280;47660;51.334;12.396;2023-05-23T03:42:32;99775.75;;;25.39;84.93
54850;BME280;47660;51.334;12.396;2023-05-23T03:45:00;99784.81;;;25.46;84.96
54850;BME280;47660;51.334;12.396;2023-05-23T03:47:25;99783.03;;;24.98;87.29
54850;BME280;47660;51.334;12.396;2023-05-23T03:49:51;99786.41;;;25.13;86.78
54850;BME280;47660;51.334;12.396;2023-05-23T03:52:18;99786.63;;;25.05;87.85
54850;BME280;47660;51.334;12.396;2023-05-23T03:54:46;99790.78;;;25.07;87.87
54850;BME280;47660;51.334;12.396;2023-05-23T03:57:12;99786.50;;;24.71;89.90
54850;BME280;47660;51.334;12.396;2023-05-23T03:59:39;99783.69;;;25.87;85.17
54850;BME280;47660;51.334;12.396;2023-05-23T04:02:07;99790.78;;;25.07;87.45
54850;BME280;47660;51.334;12.396;2023-05-23T04:04:33;99787.25;;;25.34;84.42
54850;BME280;47660;51.334;12.396;2023-05-23T04:06:59;99793.13;;;25.38;84.66
54850;BME280;47660;51.334;12.396;2023-05-23T04:09:26;99797.84;;;24.33;92.03
54850;BME280;47660;51.334;12.396;2023-05-23T04:11:52;99803.56;;;25.34;85.66
54850;BME280;47660;51.334;12.396;2023-05-23T04:14:17;99802.56;;;25.82;81.42
54850;BME280;47660;51.334;12.396;2023-05-23T04:16:46;99805.50;;;25.60;82.92
54850;BME280;47660;51.334;12.396;2023-05-23T04:19:12;99803.38;;;25.96;79.33
54850;BME280;47660;51.334;12.396;2023-05-23T04:21:37;99810.88;;;25.00;84.95
54850;BME280;47660;51.334;12.396;2023-05-23T04:24:03;99805.03;;;25.23;83.77
54850;BME280;47660;51.334;12.396;2023-05-23T04:26:29;99815.97;;;24.68;87.93
54850;BME280;47660;51.334;12.396;2023-05-23T04:28:54;99809.88;;;25.41;83.91
54850;BME280;47660;51.334;12.396;2023-05-23T04:31:20;99820.28;;;25.04;84.79
54850;BME280;47660;51.334;12.396;2023-05-23T04:33:48;99816.88;;;24.40;90.55
54850;BME280;47660;51.334;12.396;2023-05-23T04:36:14;99822.28;;;23.98;94.61
54850;BME280;47660;51.334;12.396;2023-05-23T04:38:40;99826.91;;;24.81;87.88
54850;BME280;47660;51.334;12.396;2023-05-23T04:41:06;99826.28;;;24.30;91.13
54850;BME280;47660;51.334;12.396;2023-05-23T04:43:34;99824.50;;;24.58;89.78
54850;BME280;47660;51.334;12.396;2023-05-23T04:46:02;99825.34;;;25.20;87.37
54850;BME280;47660;51.334;12.396;2023-05-23T04:48:29;99830.59;;;24.18;93.49
54850;BME280;47660;51.334;12.396;2023-05-23T04:50:59;99831.63;;;25.41;84.93
54850;BME280;47660;51.334;12.396;2023-05-23T04:53:26;99827.56;;;24.90;86.51
54850;BME280;47660;51.334;12.396;2023-05-23T04:55:51;99829.09;;;25.26;84.69
54850;BME280;47660;51.334;12.396;2023-05-23T04:58:19;99835.09;;;24.95;86.76
54850;BME280;47660;51.334;12.396;2023-05-23T05:00:47;99831.88;;;24.71;89.50
54850;BME280;47660;51.334;12.396;2023-05-23T05:03:15;99842.44;;;25.07;86.46
54850;BME280;47660;51.334;12.396;2023-05-23T05:05:40;99837.53;;;25.58;82.40
54850;BME280;47660;51.334;12.396;2023-05-23T05:08:08;99839.53;;;25.09;84.96
54850;BME280;47660;51.334;12.396;2023-05-23T05:10:33;99838.63;;;24.75;87.18
54850;BME280;47660;51.334;12.396;2023-05-23T05:13:01;99839.09;;;24.99;85.08
54850;BME280;47660;51.334;12.396;2023-05-23T05:15:26;99831.41;;;25.29;84.04
54850;BME280;47660;51.334;12.396;2023-05-23T05:17:52;99834.69;;;24.42;88.90
54850;BME280;47660;51.334;12.396;2023-05-23T05:20:17;99835.66;;;25.59;82.76
54850;BME280;47660;51.334;12.396;2023-05-23T05:22:53;99841.91;;;25.73;82.79
54850;BME280;47660;51.334;12.396;2023-05-23T05:25:24;99839.00;;;25.61;84.60
54850;BME280;47660;51.334;12.396;2023-05-23T05:27:51;99849.16;;;25.05;85.55
54850;BME280;47660;51.334;12.396;2023-05-23T05:30:16;99845.69;;;25.65;81.49
54850;BME280;47660;51.334;12.396;2023-05-23T05:32:42;99853.13;;;25.16;82.69
54850;BME280;47660;51.334;12.396;2023-05-23T05:35:10;99851.34;;;25.70;81.34
54850;BME280;47660;51.334;12.396;2023-05-23T05:37:38;99848.94;;;25.06;84.92
54850;BME280;47660;51.334;12.396;2023-05-23T05:40:04;99860.69;;;25.27;83.86
54850;BME280;47660;51.334;12.396;2023-05-23T05:42:32;99854.09;;;25.70;80.24
54850;BME280;47660;51.334;12.396;2023-05-23T05:44:57;99852.75;;;26.33;77.63
54850;BME280;47660;51.334;12.396;2023-05-23T05:47:25;99863.47;;;24.72;85.78
54850;BME280;47660;51.334;12.396;2023-05-23T05:52:16;99858.78;;;25.14;84.04
54850;BME280;47660;51.334;12.396;2023-05-23T05:54:42;99863.25;;;26.09;78.38
54850;BME280;47660;51.334;12.396;2023-05-23T05:57:07;99868.88;;;24.30;87.73
54850;BME280;47660;51.334;12.396;2023-05-23T05:59:33;99872.75;;;24.98;84.25
54850;BME280;47660;51.334;12.396;2023-05-23T06:02:00;99876.47;;;25.52;83.04
54850;BME280;47660;51.334;12.396;2023-05-23T06:04:26;99874.16;;;25.76;79.29
54850;BME280;47660;51.334;12.396;2023-05-23T06:06:56;99877.09;;;25.68;79.54
54850;BME280;47660;51.334;12.396;2023-05-23T06:09:22;99881.75;;;24.98;84.02
54850;BME280;47660;51.334;12.396;2023-05-23T06:11:47;99880.97;;;25.11;83.11
54850;BME280;47660;51.334;12.396;2023-05-23T06:14:15;99877.31;;;26.00;78.36
54850;BME280;47660;51.334;12.396;2023-05-23T06:16:40;99877.31;;;25.46;78.52
54850;BME280;47660;51.334;12.396;2023-05-23T06:19:06;99876.66;;;25.44;79.61
54850;BME280;47660;51.334;12.396;2023-05-23T06:21:32;99878.41;;;24.96;82.64
54850;BME280;47660;51.334;12.396;2023-05-23T06:23:57;99877.53;;;24.89;83.62
54850;BME280;47660;51.334;12.396;2023-05-23T06:26:23;99875.97;;;25.35;79.38
54850;BME280;47660;51.334;12.396;2023-05-23T06:28:48;99882.34;;;24.87;83.64
54850;BME280;47660;51.334;12.396;2023-05-23T06:31:14;99886.31;;;25.73;78.83
54850;BME280;47660;51.334;12.396;2023-05-23T06:33:41;99887.22;;;25.05;81.41
54850;BME280;47660;51.334;12.396;2023-05-23T06:36:07;99875.34;;;24.71;83.75
54850;BME280;47660;51.334;12.396;2023-05-23T06:38:35;99882.28;;;24.73;84.37
54850;BME280;47660;51.334;12.396;2023-05-23T06:41:00;99885.00;;;24.73;86.52
54850;BME280;47660;51.334;12.396;2023-05-23T06:43:27;99882.75;;;26.06;77.38
54850;BME280;47660;51.334;12.396;2023-05-23T06:45:53;99893.06;;;25.02;83.70
54850;BME280;47660;51.334;12.396;2023-05-23T06:48:18;99897.03;;;24.57;88.39
54850;BME280;47660;51.334;12.396;2023-05-23T06:50:44;99897.28;;;25.11;83.96
54850;BME280;47660;51.334;12.396;2023-05-23T06:53:12;99906.66;;;25.09;84.00
54850;BME280;47660;51.334;12.396;2023-05-23T06:55:38;99906.75;;;24.45;85.42
54850;BME280;47660;51.334;12.396;2023-05-23T06:58:03;99926.78;;;23.43;88.43
54850;BME280;47660;51.334;12.396;2023-05-23T07:00:29;99909.19;;;24.26;83.27
54850;BME280;47660;51.334;12.396;2023-05-23T07:02:58;99917.31;;;23.76;84.63
54850;BME280;47660;51.334;12.396;2023-05-23T07:05:26;99915.97;;;23.65;86.84
54850;BME280;47660;51.334;12.396;2023-05-23T07:07:52;99915.00;;;24.58;79.71
54850;BME280;47660;51.334;12.396;2023-05-23T07:10:21;99905.38;;;23.70;83.40
54850;BME280;47660;51.334;12.396;2023-05-23T07:12:46;99917.91;;;24.22;79.17
54850;BME280;47660;51.334;12.396;2023-05-23T07:15:14;99921.91;;;23.76;82.99
54850;BME280;47660;51.334;12.396;2023-05-23T07:17:40;99914.78;;;24.60;76.59
54850;BME280;47660;51.334;12.396;2023-05-23T07:20:06;99918.16;;;24.97;73.85
54850;BME280;47660;51.334;12.396;2023-05-23T07:22:32;99913.97;;;24.24;75.36
54850;BME280;47660;51.334;12.396;2023-05-23T07:24:57;99912.97;;;25.16;71.42
54850;BME280;47660;51.334;12.396;2023-05-23T07:27:23;99923.06;;;25.35;68.85
54850;BME280;47660;51.334;12.396;2023-05-23T07:29:50;99917.81;;;25.20;68.10
54850;BME280;47660;51.334;12.396;2023-05-23T07:32:17;99916.25;;;24.91;68.85
54850;BME280;47660;51.334;12.396;2023-05-23T07:34:42;99910.03;;;24.33;68.70
54850;BME280;47660;51.334;12.396;2023-05-23T07:37:10;99922.19;;;24.09;69.84
54850;BME280;47660;51.334;12.396;2023-05-23T07:39:36;99920.75;;;24.42;69.00
54850;BME280;47660;51.334;12.396;2023-05-23T07:42:01;99926.81;;;24.72;67.05
54850;BME280;47660;51.334;12.396;2023-05-23T07:44:27;99920.16;;;24.75;67.04
54850;BME280;47660;51.334;12.396;2023-05-23T07:46:52;99919.38;;;25.57;64.40
54850;BME280;47660;51.334;12.396;2023-05-23T07:49:18;99929.03;;;25.04;65.31
54850;BME280;47660;51.334;12.396;2023-05-23T07:51:46;99925.16;;;25.33;64.05
54850;BME280;47660;51.334;12.396;2023-05-23T07:54:14;99924.03;;;25.07;64.89
54850;BME280;47660;51.334;12.396;2023-05-23T07:56:39;99933.63;;;25.65;62.94
54850;BME280;47660;51.334;12.396;2023-05-23T07:59:05;99929.91;;;25.11;65.40
54850;BME280;47660;51.334;12.396;2023-05-23T08:01:32;99933.50;;;25.25;64.34
54850;BME280;47660;51.334;12.396;2023-05-23T08:03:57;99937.06;;;25.26;63.93
54850;BME280;47660;51.334;12.396;2023-05-23T08:06:23;99940.88;;;24.89;64.81
54850;BME280;47660;51.334;12.396;2023-05-23T08:08:49;99950.41;;;25.14;66.58
54850;BME280;47660;51.334;12.396;2023-05-23T08:11:15;99947.38;;;24.88;66.36
54850;BME280;47660;51.334;12.396;2023-05-23T08:13:40;99947.34;;;25.37;64.26
54850;BME280;47660;51.334;12.396;2023-05-23T08:16:06;99943.69;;;24.68;66.60
54850;BME280;47660;51.334;12.396;2023-05-23T08:18:31;99946.94;;;25.40;64.59
54850;BME280;47660;51.334;12.396;2023-05-23T08:20:57;99948.25;;;25.58;64.84
54850;BME280;47660;51.334;12.396;2023-05-23T08:23:22;99961.47;;;25.68;64.38
54850;BME280;47660;51.334;12.396;2023-05-23T08:25:53;99959.69;;;24.84;67.50
54850;BME280;47660;51.334;12.396;2023-05-23T08:28:20;99958.38;;;24.73;66.44
54850;BME280;47660;51.334;12.396;2023-05-23T08:30:45;99958.06;;;24.90;67.59
54850;BME280;47660;51.334;12.396;2023-05-23T08:33:11;99953.97;;;26.03;63.83
54850;BME280;47660;51.334;12.396;2023-05-23T08:35:36;99960.22;;;25.70;64.19
54850;BME280;47660;51.334;12.396;2023-05-23T08:38:04;99959.97;;;25.58;65.28
54850;BME280;47660;51.334;12.396;2023-05-23T08:40:30;99958.16;;;26.46;61.03
54850;BME280;47660;51.334;12.396;2023-05-23T08:42:57;99957.28;;;25.78;62.76
54850;BME280;47660;51.334;12.396;2023-05-23T08:45:22;99952.25;;;25.62;63.20
54850;BME280;47660;51.334;12.396;2023-05-23T08:47:51;99960.69;;;25.18;66.26
54850;BME280;47660;51.334;12.396;2023-05-23T08:50:17;99953.72;;;26.65;59.54
54850;BME280;47660;51.334;12.396;2023-05-23T08:55:10;99964.63;;;25.78;63.14
54850;BME280;47660;51.334;12.396;2023-05-23T08:57:38;99957.97;;;26.01;63.42
54850;BME280;47660;51.334;12.396;2023-05-23T09:00:09;99962.97;;;26.37;61.66
54850;BME280;47660;51.334;12.396;2023-05-23T09:02:39;99973.00;;;25.76;62.41
54850;BME280;47660;51.334;12.396;2023-05-23T09:05:10;99962.09;;;26.50;60.03
54850;BME280;47660;51.334;12.396;2023-05-23T09:07:36;99970.25;;;26.64;60.05
54850;BME280;47660;51.334;12.396;2023-05-23T09:10:04;99969.63;;;26.75;58.97
54850;BME280;47660;51.334;12.396;2023-05-23T09:12:33;99974.22;;;25.05;63.32
54850;BME280;47660;51.334;12.396;2023-05-23T09:15:02;99968.88;;;26.28;60.04
54850;BME280;47660;51.334;12.396;2023-05-23T09:17:27;99973.66;;;24.81;64.58
54850;BME280;47660;51.334;12.396;2023-05-23T09:19:53;99973.03;;;26.44;60.01
54850;BME280;47660;51.334;12.396;2023-05-23T09:22:27;99984.13;;;26.55;60.35
54850;BME280;47660;51.334;12.396;2023-05-23T09:24:55;99983.09;;;26.36;61.14
54850;BME280;47660;51.334;12.396;2023-05-23T09:27:21;99987.94;;;26.14;61.27
54850;BME280;47660;51.334;12.396;2023-05-23T09:29:51;99983.06;;;26.57;61.34
54850;BME280;47660;51.334;12.396;2023-05-23T09:32:17;99982.41;;;26.75;59.90
54850;BME280;47660;51.334;12.396;2023-05-23T09:37:15;99971.22;;;27.10;59.59
54850;BME280;47660;51.334;12.396;2023-05-23T09:39:46;99976.06;;;27.08;58.44
54850;BME280;47660;51.334;12.396;2023-05-23T09:42:19;99974.63;;;27.44;56.40
54850;BME280;47660;51.334;12.396;2023-05-23T09:44:45;99979.47;;;26.76;58.87
54850;BME280;47660;51.334;12.396;2023-05-23T09:47:10;99987.06;;;26.54;58.56
54850;BME280;47660;51.334;12.396;2023-05-23T09:49:38;99987.91;;;26.54;60.16
54850;BME280;47660;51.334;12.396;2023-05-23T09:52:06;99982.84;;;26.72;59.45
54850;BME280;47660;51.334;12.396;2023-05-23T09:54:34;99986.34;;;26.99;59.78
54850;BME280;47660;51.334;12.396;2023-05-23T09:57:09;99989.94;;;26.99;57.67
54850;BME280;47660;51.334;12.396;2023-05-23T09:59:39;99983.88;;;25.63;63.42
54850;BME280;47660;51.334;12.396;2023-05-23T10:02:06;99998.34;;;25.70;64.31
54850;BME280;47660;51.334;12.396;2023-05-23T10:04:34;99994.19;;;26.08;63.22
54850;BME280;47660;51.334;12.396;2023-05-23T10:07:19;99989.13;;;27.38;59.31
54850;BME280;47660;51.334;12.396;2023-05-23T10:10:02;99993.31;;;25.74;63.36
54850;BME280;47660;51.334;12.396;2023-05-23T10:15:02;99996.25;;;25.72;66.52
54850;BME280;47660;51.334;12.396;2023-05-23T10:17:36;99987.84;;;25.74;63.74
54850;BME280;47660;51.334;12.396;2023-05-23T10:20:10;99986.16;;;26.74;61.63
54850;BME280;47660;51.334;12.396;2023-05-23T10:22:36;99991.50;;;26.48;61.03
54850;BME280;47660;51.334;12.396;2023-05-23T10:25:03;99988.69;;;26.75;59.52
54850;BME280;47660;51.334;12.396;2023-05-23T10:27:30;99989.97;;;26.66;60.82
54850;BME280;47660;51.334;12.396;2023-05-23T10:29:58;99990.66;;;26.21;62.14
54850;BME280;47660;51.334;12.396;2023-05-23T10:32:26;100002.25;;;25.47;64.31
54850;BME280;47660;51.334;12.396;2023-05-23T10:35:03;99994.31;;;25.53;65.05
54850;BME280;47660;51.334;12.396;2023-05-23T10:37:44;99990.44;;;26.22;63.54
54850;BME280;47660;51.334;12.396;2023-05-23T10:43:50;99997.47;;;26.97;62.52
54850;BME280;47660;51.334;12.396;2023-05-23T10:46:20;100002.63;;;26.20;64.30
54850;BME280;47660;51.334;12.396;2023-05-23T10:48:53;99992.44;;;26.81;63.87
54850;BME280;47660;51.334;12.396;2023-05-23T10:51:20;100000.50;;;26.49;63.64
54850;BME280;47660;51.334;12.396;2023-05-23T10:53:52;100005.28;;;26.06;66.11
54850;BME280;47660;51.334;12.396;2023-05-23T10:56:20;100014.06;;;25.95;67.11
54850;BME280;47660;51.334;12.396;2023-05-23T10:58:53;100007.34;;;25.91;63.58
54850;BME280;47660;51.334;12.396;2023-05-23T11:01:21;100011.88;;;25.08;66.60
54850;BME280;47660;51.334;12.396;2023-05-23T11:06:37;100011.50;;;25.60;65.07
54850;BME280;47660;51.334;12.396;2023-05-23T11:16:55;100024.59;;;26.65;59.70
54850;BME280;47660;51.334;12.396;2023-05-23T11:19:24;100021.28;;;25.54;62.84
54850;BME280;47660;51.334;12.396;2023-05-23T11:22:00;100011.38;;;26.35;60.61
54850;BME280;47660;51.334;12.396;2023-05-23T11:24:54;100036.28;;;25.99;60.67
54850;BME280;47660;51.334;12.396;2023-05-23T11:32:26;100032.97;;;24.99;63.42
54850;BME280;47660;51.334;12.396;2023-05-23T11:34:52;100037.75;;;23.97;66.54
54850;BME280;47660;51.334;12.396;2023-05-23T11:37:18;100038.31;;;24.86;65.56
54850;BME280;47660;51.334;12.396;2023-05-23T11:39:44;100050.22;;;24.56;68.93
54850;BME280;47660;51.334;12.396;2023-05-23T11:42:12;100055.66;;;23.54;79.31
54850;BME280;47660;51.334;12.396;2023-05-23T11:44:40;100054.00;;;24.12;76.37
54850;BME280;47660;51.334;12.396;2023-05-23T11:47:06;100041.22;;;24.27;73.93
54850;BME280;47660;51.334;12.396;2023-05-23T11:49:37;100049.75;;;24.74;72.29
54850;BME280;47660;51.334;12.396;2023-05-23T11:52:05;100049.75;;;25.10;70.23
54850;BME280;47660;51.334;12.396;2023-05-23T11:54:31;100048.44;;;24.20;70.80
54850;BME280;47660;51.334;12.396;2023-05-23T11:56:57;100049.09;;;25.07;67.89
54850;BME280;47660;51.334;12.396;2023-05-23T11:59:24;100049.03;;;24.94;69.20
54850;BME280;47660;51.334;12.396;2023-05-23T12:01:53;100049.97;;;25.15;67.37
54850;BME280;47660;51.334;12.396;2023-05-23T12:04:18;100062.84;;;25.28;67.28
54850;BME280;47660;51.334;12.396;2023-05-23T12:06:48;100072.16;;;24.33;74.14
54850;BME280;47660;51.334;12.396;2023-05-23T12:09:14;100063.19;;;24.11;76.46
54850;BME280;47660;51.334;12.396;2023-05-23T12:11:41;100069.03;;;23.93;78.03
54850;BME280;47660;51.334;12.396;2023-05-23T12:14:07;100072.63;;;24.15;76.51
54850;BME280;47660;51.334;12.396;2023-05-23T12:16:38;100060.88;;;24.80;74.07
54850;BME280;47660;51.334;12.396;2023-05-23T12:19:04;100069.53;;;24.18;75.38
54850;BME280;47660;51.334;12.396;2023-05-23T12:21:47;100067.94;;;24.52;72.95
54850;BME280;47660;51.334;12.396;2023-05-23T12:24:20;100082.88;;;23.61;80.59
54850;BME280;47660;51.334;12.396;2023-05-23T12:26:47;100078.97;;;23.34;76.92
54850;BME280;47660;51.334;12.396;2023-05-23T12:29:15;100081.47;;;22.90;80.12
54850;BME280;47660;51.334;12.396;2023-05-23T12:31:40;100081.63;;;23.64;75.69
54850;BME280;47660;51.334;12.396;2023-05-23T12:34:12;100085.03;;;23.06;80.39
54850;BME280;47660;51.334;12.396;2023-05-23T12:36:37;100083.66;;;24.13;73.45
54850;BME280;47660;51.334;12.396;2023-05-23T12:39:06;100077.91;;;24.01;73.72
54850;BME280;47660;51.334;12.396;2023-05-23T12:41:33;100082.31;;;24.46;72.19
54850;BME280;47660;51.334;12.396;2023-05-23T12:43:58;100091.69;;;23.85;72.47
54850;BME280;47660;51.334;12.396;2023-05-23T12:46:25;100092.78;;;24.49;69.79
54850;BME280;47660;51.334;12.396;2023-05-23T12:48:53;100084.47;;;23.55;71.60
54850;BME280;47660;51.334;12.396;2023-05-23T12:51:19;100087.56;;;23.89;71.62
54850;BME280;47660;51.334;12.396;2023-05-23T12:53:45;100097.47;;;23.60;71.48
54850;BME280;47660;51.334;12.396;2023-05-23T12:56:13;100101.72;;;23.84;69.77
54850;BME280;47660;51.334;12.396;2023-05-23T12:58:39;100089.97;;;23.62;69.77
54850;BME280;47660;51.334;12.396;2023-05-23T13:01:04;100096.50;;;22.93;73.42
54850;BME280;47660;51.334;12.396;2023-05-23T13:03:30;100088.38;;;22.93;70.66
54850;BME280;47660;51.334;12.396;2023-05-23T13:05:56;100105.84;;;23.05;72.93
54850;BME280;47660;51.334;12.396;2023-05-23T13:08:22;100115.97;;;22.58;74.85
54850;BME280;47660;51.334;12.396;2023-05-23T13:10:48;100115.16;;;22.26;77.21
54850;BME280;47660;51.334;12.396;2023-05-23T13:13:13;100106.66;;;22.29;77.67
54850;BME280;47660;51.334;12.396;2023-05-23T13:15:42;100104.72;;;22.84;75.66
54850;BME280;47660;51.334;12.396;2023-05-23T13:18:07;100119.09;;;22.85;73.89
54850;BME280;47660;51.334;12.396;2023-05-23T13:20:37;100105.75;;;22.83;77.17
54850;BME280;47660;51.334;12.396;2023-05-23T13:23:06;100104.59;;;23.46;72.26
54850;BME280;47660;51.334;12.396;2023-05-23T13:25:32;100120.19;;;22.76;75.21
54850;BME280;47660;51.334;12.396;2023-05-23T13:27:57;100116.88;;;22.42;76.38